createdAt,value
2018-02-24T00:00:06.797Z,7.60
2018-02-24T00:02:34.243Z,9.40
2018-02-24T00:05:01.726Z,8.60
2018-02-24T00:07:29.183Z,7.78
2018-02-24T00:09:57.481Z,5.45
2018-02-24T00:12:25.363Z,6.22
2018-02-24T00:14:53.613Z,7.93
2018-02-24T00:17:21.086Z,7.37
2018-02-24T00:19:48.554Z,7.45
2018-02-24T00:22:16.005Z,5.10
2018-02-24T00:24:43.457Z,5.85
2018-02-24T00:27:10.903Z,3.00
2018-02-24T00:29:38.351Z,6.60
2018-02-24T00:32:05.809Z,4.22
2018-02-24T00:34:33.252Z,5.82
2018-02-24T00:37:00.743Z,7.40
2018-02-24T00:39:28.200Z,8.32
2018-02-24T00:41:55.667Z,4.25
2018-02-24T00:44:23.151Z,6.80
2018-02-24T00:46:50.995Z,8.48
2018-02-24T00:49:18.425Z,6.37
2018-02-24T00:51:45.883Z,5.30
2018-02-24T00:54:13.380Z,5.32
2018-02-24T00:56:41.242Z,6.75
2018-02-24T00:59:09.083Z,8.60
2018-02-24T01:01:36.536Z,4.87
2018-02-24T01:04:04.002Z,5.12
2018-02-24T01:06:31.447Z,6.00
2018-02-24T01:08:58.909Z,4.50
2018-02-24T01:11:26.351Z,7.70
2018-02-24T01:13:53.823Z,6.62
2018-02-24T01:16:21.284Z,6.07
2018-02-24T01:18:48.754Z,6.20
2018-02-24T01:21:16.189Z,7.20
2018-02-24T01:23:43.664Z,7.70
2018-02-24T01:26:11.104Z,5.82
2018-02-24T01:28:38.564Z,6.78
2018-02-24T01:31:06.057Z,7.00
2018-02-24T01:33:33.907Z,3.95
2018-02-24T01:36:01.353Z,6.28
2018-02-24T01:38:28.786Z,6.32
2018-02-24T01:40:56.213Z,6.45
2018-02-24T01:43:23.644Z,5.32
2018-02-24T01:45:51.074Z,5.22
2018-02-24T01:48:18.508Z,8.05
2018-02-24T01:50:45.940Z,6.22
2018-02-24T01:53:13.382Z,7.25
2018-02-24T01:55:40.797Z,6.10
2018-02-24T01:58:08.236Z,6.62
2018-02-24T02:00:35.704Z,9.02
2018-02-24T02:03:03.132Z,6.43
2018-02-24T02:05:30.561Z,3.92
2018-02-24T02:07:58.003Z,4.75
2018-02-24T02:10:25.820Z,6.47
2018-02-24T02:12:53.265Z,8.60
2018-02-24T02:15:20.688Z,6.68
2018-02-24T02:17:48.451Z,5.18
2018-02-24T02:20:15.876Z,7.40
2018-02-24T02:22:43.305Z,4.70
2018-02-24T02:25:10.737Z,8.18
2018-02-24T02:27:38.177Z,7.72
2018-02-24T02:30:05.613Z,4.68
2018-02-24T02:32:33.439Z,5.35
2018-02-24T02:35:00.856Z,6.07
2018-02-24T02:37:28.284Z,4.50
2018-02-24T02:39:55.717Z,6.25
2018-02-24T02:42:23.149Z,4.78
2018-02-24T02:44:51.334Z,5.25
2018-02-24T02:47:18.769Z,6.12
2018-02-24T02:49:46.185Z,4.37
2018-02-24T02:52:14.033Z,3.55
2018-02-24T02:54:41.463Z,5.32
2018-02-24T02:57:08.895Z,4.22
2018-02-24T02:59:36.364Z,5.20
2018-02-24T03:02:03.776Z,6.68
2018-02-24T03:04:31.610Z,5.97
2018-02-24T03:06:59.038Z,4.75
2018-02-24T03:09:26.478Z,6.37
2018-02-24T03:11:53.913Z,7.55
2018-02-24T03:14:21.357Z,5.12
2018-02-24T03:16:48.781Z,7.18
2018-02-24T03:19:16.221Z,8.38
2018-02-24T03:21:43.648Z,3.25
2018-02-24T03:24:11.472Z,5.10
2018-02-24T03:26:38.898Z,6.90
2018-02-24T03:29:06.324Z,5.12
2018-02-24T03:31:33.753Z,6.80
2018-02-24T03:34:01.189Z,6.25
2018-02-24T03:36:28.629Z,4.32
2018-02-24T03:38:56.056Z,3.72
2018-02-24T03:41:23.480Z,6.47
2018-02-24T03:43:51.752Z,5.80
2018-02-24T03:46:34.844Z,3.92
2018-02-24T03:49:02.270Z,5.40
2018-02-24T03:51:29.704Z,6.50
2018-02-24T03:53:57.178Z,6.78
2018-02-24T03:56:25.021Z,5.50
2018-02-24T03:58:52.459Z,4.57
2018-02-24T04:01:19.876Z,5.72
2018-02-24T04:03:47.310Z,7.12
2018-02-24T04:06:14.731Z,5.70
2018-02-24T04:08:42.170Z,3.28
2018-02-24T04:11:09.588Z,6.05
2018-02-24T04:13:37.025Z,6.50
2018-02-24T04:16:04.860Z,4.47
2018-02-24T04:18:32.296Z,4.45
2018-02-24T04:20:59.729Z,4.10
2018-02-24T04:23:27.160Z,4.07
2018-02-24T04:25:54.604Z,4.90
2018-02-24T04:28:22.028Z,5.25
2018-02-24T04:30:49.452Z,5.00
2018-02-24T04:33:16.888Z,4.03
2018-02-24T04:35:44.321Z,4.53
2018-02-24T04:38:11.756Z,6.70
2018-02-24T04:40:39.185Z,4.32
2018-02-24T04:43:06.612Z,4.18
2018-02-24T04:45:34.043Z,5.47
2018-02-24T04:48:01.480Z,5.32
2018-02-24T04:50:28.903Z,5.47
2018-02-24T04:52:57.279Z,6.15
2018-02-24T04:55:24.724Z,4.03
2018-02-24T04:57:52.144Z,6.55
2018-02-24T05:00:19.568Z,5.57
2018-02-24T05:02:46.992Z,7.68
2018-02-24T05:05:14.428Z,9.38
2018-02-24T05:07:42.248Z,6.60
2018-02-24T05:10:09.680Z,3.53
2018-02-24T05:12:37.113Z,6.90
2018-02-24T05:15:04.944Z,6.82
2018-02-24T05:17:32.369Z,9.45
2018-02-24T05:19:59.823Z,8.70
2018-02-24T05:22:27.248Z,6.68
2018-02-24T05:24:55.110Z,8.95
2018-02-24T05:27:22.505Z,3.72
2018-02-24T05:29:49.943Z,5.43
2018-02-24T05:32:17.377Z,4.55
2018-02-24T05:34:44.804Z,6.95
2018-02-24T05:37:12.224Z,6.78
2018-02-24T05:39:39.661Z,8.75
2018-02-24T05:42:07.092Z,6.90
2018-02-24T05:44:34.534Z,7.47
2018-02-24T05:47:01.960Z,5.22
2018-02-24T05:49:29.388Z,5.80
2018-02-24T05:51:56.814Z,6.72
2018-02-24T05:54:24.255Z,7.80
2018-02-24T05:56:51.709Z,4.70
2018-02-24T05:59:19.120Z,8.00
2018-02-24T06:01:46.552Z,7.32
2018-02-24T06:04:14.384Z,6.65
2018-02-24T06:06:41.812Z,6.40
2018-02-24T06:09:09.264Z,7.30
2018-02-24T06:11:36.677Z,6.10
2018-02-24T06:14:04.104Z,6.20
2018-02-24T06:16:31.538Z,7.93
2018-02-24T06:18:58.970Z,7.57
2018-02-24T06:21:26.413Z,6.20
2018-02-24T06:23:54.241Z,5.68
2018-02-24T06:26:21.714Z,6.90
2018-02-24T06:28:49.150Z,9.63
2018-02-24T06:31:16.588Z,6.22
2018-02-24T06:33:44.001Z,7.12
2018-02-24T06:36:11.836Z,8.20
2018-02-24T06:38:39.271Z,6.70
2018-02-24T06:41:06.683Z,4.00
2018-02-24T06:43:34.538Z,6.18
2018-02-24T06:46:01.951Z,9.98
2018-02-24T06:48:29.368Z,7.37
2018-02-24T06:50:56.807Z,9.50
2018-02-24T06:53:24.232Z,9.85
2018-02-24T06:55:51.664Z,5.25
2018-02-24T06:58:19.088Z,5.62
2018-02-24T07:00:46.939Z,4.93
2018-02-24T07:03:14.353Z,6.32
2018-02-24T07:05:41.776Z,7.28
2018-02-24T07:08:09.206Z,3.80
2018-02-24T07:10:36.642Z,7.87
2018-02-24T07:13:04.068Z,7.07
2018-02-24T07:15:31.506Z,11.18
2018-02-24T07:17:58.935Z,7.80
2018-02-24T07:20:26.377Z,7.82
2018-02-24T07:22:53.799Z,5.10
2018-02-24T07:25:21.760Z,6.18
2018-02-24T07:27:49.203Z,5.93
2018-02-24T07:30:16.697Z,6.25
2018-02-24T07:32:44.120Z,8.02
2018-02-24T07:35:11.556Z,6.87
2018-02-24T07:37:39.385Z,9.55
2018-02-24T07:40:06.921Z,6.00
2018-02-24T07:42:34.693Z,6.03
2018-02-24T07:45:02.166Z,6.97
2018-02-24T07:47:29.591Z,4.45
2018-02-24T07:49:57.056Z,4.40
2018-02-24T07:52:24.540Z,3.92
2018-02-24T07:54:52.063Z,5.87
2018-02-24T07:57:19.497Z,9.57
2018-02-24T07:59:46.945Z,8.60
2018-02-24T08:02:14.890Z,5.55
2018-02-24T08:04:42.343Z,8.10
2018-02-24T08:07:09.801Z,7.65
2018-02-24T08:09:37.260Z,6.78
2018-02-24T08:12:04.689Z,5.18
2018-02-24T08:14:32.164Z,4.80
2018-02-24T08:16:59.633Z,8.13
2018-02-24T08:19:27.143Z,6.95
2018-02-24T08:21:54.583Z,6.78
2018-02-24T08:24:22.018Z,6.80
2018-02-24T08:26:49.452Z,5.57
2018-02-24T08:29:16.958Z,8.65
2018-02-24T08:31:44.396Z,6.30
2018-02-24T08:34:12.221Z,5.12
2018-02-24T08:36:39.656Z,8.15
2018-02-24T08:39:07.092Z,5.40
2018-02-24T08:41:34.557Z,8.00
2018-02-24T08:44:01.969Z,6.25
2018-02-24T08:46:29.792Z,9.75
2018-02-24T08:48:57.446Z,10.15
2018-02-24T08:51:24.876Z,10.05
2018-02-24T08:53:52.351Z,9.45
2018-02-24T08:56:19.801Z,16.65
2018-02-24T08:58:47.258Z,11.18
2018-02-24T09:01:14.681Z,5.32
2018-02-24T09:03:42.104Z,5.82
2018-02-24T09:06:09.586Z,7.62
2018-02-24T09:08:37.000Z,5.10
2018-02-24T09:11:04.437Z,11.07
2018-02-24T09:13:31.948Z,13.05
2018-02-24T09:15:59.372Z,7.30
2018-02-24T09:18:26.796Z,9.32
2018-02-24T09:20:54.229Z,6.28
2018-02-24T09:23:22.048Z,5.95
2018-02-24T09:25:49.486Z,5.85
2018-02-24T09:28:16.907Z,6.10
2018-02-24T09:30:44.339Z,7.05
2018-02-24T09:33:11.818Z,7.55
2018-02-24T09:35:39.229Z,5.45
2018-02-24T09:38:06.659Z,6.50
2018-02-24T09:40:34.109Z,7.03
2018-02-24T09:43:01.542Z,5.90
2018-02-24T09:45:29.364Z,5.47
2018-02-24T09:47:56.796Z,3.95
2018-02-24T09:50:24.240Z,4.75
2018-02-24T09:52:51.678Z,5.65
2018-02-24T09:55:19.131Z,4.15
2018-02-24T09:57:46.553Z,5.65
2018-02-24T10:00:13.989Z,3.53
2018-02-24T10:02:41.408Z,4.60
2018-02-24T10:05:09.235Z,4.70
2018-02-24T10:07:36.648Z,4.82
2018-02-24T10:10:04.084Z,3.85
2018-02-24T10:12:31.512Z,5.28
2018-02-24T10:14:59.021Z,4.07
2018-02-24T10:17:26.385Z,4.78
2018-02-24T10:19:53.827Z,5.40
2018-02-24T10:22:21.245Z,4.90
2018-02-24T10:24:48.736Z,5.15
2018-02-24T10:27:16.120Z,4.60
2018-02-24T10:29:43.572Z,4.45
2018-02-24T10:32:11.009Z,5.20
2018-02-24T10:34:38.429Z,5.40
2018-02-24T10:37:05.865Z,4.87
2018-02-24T10:39:33.502Z,4.80
2018-02-24T10:42:01.002Z,4.40
2018-02-24T10:44:28.380Z,4.03
2018-02-24T10:46:56.812Z,3.83
2018-02-24T10:49:24.388Z,3.22
2018-02-24T10:51:51.849Z,2.72
2018-02-24T10:54:19.288Z,4.22
2018-02-24T10:56:46.726Z,2.37
2018-02-24T10:59:14.187Z,3.83
2018-02-24T11:01:41.636Z,3.15
2018-02-24T11:04:09.104Z,4.18
2018-02-24T11:06:36.532Z,3.50
2018-02-24T11:09:03.956Z,2.25
2018-02-24T11:11:31.433Z,2.85
2018-02-24T11:13:59.256Z,3.90
2018-02-24T11:16:26.693Z,3.28
2018-02-24T11:18:54.120Z,2.62
2018-02-24T11:21:21.598Z,2.72
2018-02-24T11:23:49.029Z,2.80
2018-02-24T11:26:16.500Z,2.67
2018-02-24T11:28:43.932Z,2.20
2018-02-24T11:31:11.753Z,2.25
2018-02-24T11:33:39.229Z,2.20
2018-02-24T11:36:06.721Z,4.85
2018-02-24T11:38:34.165Z,3.97
2018-02-24T11:41:01.616Z,5.55
2018-02-24T11:43:29.456Z,9.70
2018-02-24T11:45:56.879Z,6.00
2018-02-24T11:48:24.304Z,5.37
2018-02-24T11:50:52.254Z,5.57
2018-02-24T11:53:19.717Z,5.20
2018-02-24T11:55:47.544Z,9.35
2018-02-24T11:58:15.697Z,5.90
2018-02-24T12:00:43.150Z,3.22
2018-02-24T12:03:10.573Z,6.70
2018-02-24T12:05:42.967Z,4.55
2018-02-24T12:08:10.380Z,3.65
2018-02-24T12:10:37.806Z,4.05
2018-02-24T12:13:05.220Z,4.32
2018-02-24T12:15:33.052Z,3.15
2018-02-24T12:18:00.486Z,3.35
2018-02-24T12:20:27.911Z,4.28
2018-02-24T12:22:55.333Z,6.30
2018-02-24T12:25:22.775Z,4.12
2018-02-24T12:27:50.253Z,6.50
2018-02-24T12:30:17.689Z,3.75
2018-02-24T12:32:45.109Z,4.47
2018-02-24T12:35:12.536Z,3.87
2018-02-24T12:37:40.361Z,4.68
2018-02-24T12:40:07.792Z,5.53
2018-02-24T12:42:35.224Z,5.18
2018-02-24T12:45:02.645Z,3.62
2018-02-24T12:47:30.085Z,5.00
2018-02-24T12:49:57.511Z,4.50
2018-02-24T12:52:25.436Z,5.40
2018-02-24T12:54:52.845Z,4.18
2018-02-24T12:57:20.286Z,4.37
2018-02-24T12:59:47.711Z,3.70
2018-02-24T13:02:15.533Z,3.80
2018-02-24T13:04:42.952Z,3.20
2018-02-24T13:07:10.373Z,3.65
2018-02-24T13:09:37.789Z,3.85
2018-02-24T13:12:05.218Z,4.28
2018-02-24T13:14:32.645Z,3.92
2018-02-24T13:17:00.069Z,3.47
2018-02-24T13:19:27.489Z,3.67
2018-02-24T13:21:55.026Z,4.20
2018-02-24T13:24:22.476Z,4.15
2018-02-24T13:26:49.897Z,2.85
2018-02-24T13:29:17.309Z,3.62
2018-02-24T13:31:44.740Z,5.45
2018-02-24T13:34:12.180Z,2.60
2018-02-24T13:36:39.651Z,3.65
2018-02-24T13:39:07.151Z,4.80
2018-02-24T13:41:34.637Z,3.95
2018-02-24T13:44:02.172Z,3.55
2018-02-24T13:46:29.638Z,4.87
2018-02-24T13:48:57.916Z,3.47
2018-02-24T13:51:25.501Z,2.97
2018-02-24T13:53:52.945Z,4.45
2018-02-24T13:56:20.388Z,3.33
2018-02-24T13:58:48.667Z,5.90
2018-02-24T14:01:16.112Z,3.97
2018-02-24T14:03:44.433Z,3.90
2018-02-24T14:06:12.802Z,6.45
2018-02-24T14:08:40.228Z,4.80
2018-02-24T14:11:07.891Z,5.32
2018-02-24T14:13:35.373Z,4.22
2018-02-24T14:16:02.823Z,4.65
2018-02-24T14:18:30.558Z,7.43
2018-02-24T14:20:58.942Z,5.75
2018-02-24T14:23:27.789Z,5.30
2018-02-24T14:25:55.273Z,4.40
2018-02-24T14:28:22.676Z,4.75
2018-02-24T14:30:50.164Z,3.65
2018-02-24T14:33:17.608Z,4.25
2018-02-24T14:35:45.085Z,3.17
2018-02-24T14:38:13.726Z,4.03
2018-02-24T14:40:44.098Z,3.00
2018-02-24T14:43:11.929Z,4.78
2018-02-24T14:45:39.785Z,3.55
2018-02-24T14:48:07.234Z,5.00
2018-02-24T14:50:34.669Z,2.47
2018-02-24T14:53:02.128Z,2.72
2018-02-24T14:55:29.588Z,4.35
2018-02-24T14:57:58.200Z,3.97
2018-02-24T15:00:27.772Z,3.90
2018-02-24T15:02:55.235Z,3.35
2018-02-24T15:05:24.602Z,4.90
2018-02-24T15:07:53.122Z,5.82
2018-02-24T15:10:21.457Z,4.32
2018-02-24T15:12:48.918Z,4.03
2018-02-24T15:15:17.665Z,4.82
2018-02-24T15:17:46.040Z,2.78
2018-02-24T15:20:16.209Z,5.43
2018-02-24T15:22:43.697Z,3.37
2018-02-24T15:25:11.140Z,4.93
2018-02-24T15:27:38.910Z,4.62
2018-02-24T15:30:06.360Z,3.90
2018-02-24T15:32:33.811Z,3.20
2018-02-24T15:35:01.267Z,5.28
2018-02-24T15:37:31.165Z,4.45
2018-02-24T15:39:59.816Z,3.50
2018-02-24T15:42:27.286Z,2.95
2018-02-24T15:44:54.774Z,3.03
2018-02-24T15:47:22.260Z,4.60
2018-02-24T15:49:50.123Z,5.60
2018-02-24T15:52:17.664Z,6.75
2018-02-24T15:54:45.156Z,6.10
2018-02-24T15:57:12.964Z,4.35
2018-02-24T15:59:40.400Z,4.03
2018-02-24T16:02:08.676Z,4.40
2018-02-24T16:04:36.111Z,4.07
2018-02-24T16:07:03.602Z,4.22
2018-02-24T16:09:31.053Z,4.25
2018-02-24T16:11:58.547Z,4.35
2018-02-24T16:14:26.551Z,4.05
2018-02-24T16:16:55.595Z,4.65
2018-02-24T16:19:23.496Z,3.85
2018-02-24T16:21:50.929Z,5.07
2018-02-24T16:24:18.340Z,5.57
2018-02-24T16:26:45.773Z,5.75
2018-02-24T16:29:13.202Z,5.28
2018-02-24T16:31:40.648Z,3.95
2018-02-24T16:34:08.061Z,5.93
2018-02-24T16:36:35.506Z,5.00
2018-02-24T16:39:02.930Z,4.15
2018-02-24T16:41:30.370Z,4.37
2018-02-24T16:43:57.788Z,3.08
2018-02-24T16:46:25.230Z,6.18
2018-02-24T16:48:52.747Z,3.90
2018-02-24T16:51:20.561Z,4.37
2018-02-24T16:53:47.998Z,5.00
2018-02-24T16:56:15.437Z,4.18
2018-02-24T16:58:42.920Z,4.55
2018-02-24T17:01:10.357Z,6.00
2018-02-24T17:03:37.840Z,4.70
2018-02-24T17:06:05.283Z,4.25
2018-02-24T17:08:32.713Z,4.65
2018-02-24T17:11:00.144Z,4.93
2018-02-24T17:13:27.569Z,3.83
2018-02-24T17:15:55.004Z,3.05
2018-02-24T17:18:22.456Z,3.78
2018-02-24T17:20:49.857Z,2.67
2018-02-24T17:23:17.289Z,4.90
2018-02-24T17:25:44.712Z,3.50
2018-02-24T17:28:12.152Z,3.78
2018-02-24T17:30:39.593Z,3.90
2018-02-24T17:33:06.989Z,3.28
2018-02-24T17:35:34.409Z,4.15
2018-02-24T17:38:02.228Z,2.62
2018-02-24T17:40:29.691Z,2.55
2018-02-24T17:42:57.077Z,2.78
2018-02-24T17:45:24.498Z,3.35
2018-02-24T17:47:51.926Z,2.03
2018-02-24T17:50:19.344Z,3.50
2018-02-24T17:52:47.173Z,2.15
2018-02-24T17:55:14.606Z,2.65
2018-02-24T17:57:42.042Z,2.97
2018-02-24T18:00:09.465Z,2.97
2018-02-24T18:02:36.922Z,2.40
2018-02-24T18:05:04.349Z,2.75
2018-02-24T18:07:31.782Z,2.20
2018-02-24T18:09:59.200Z,2.58
2018-02-24T18:12:27.025Z,2.55
2018-02-24T18:14:54.460Z,2.10
2018-02-24T18:17:21.882Z,2.58
2018-02-24T18:19:49.309Z,2.20
2018-02-24T18:22:16.760Z,2.45
2018-02-24T18:24:44.209Z,2.83
2018-02-24T18:27:11.637Z,2.95
2018-02-24T18:29:39.054Z,1.98
2018-02-24T18:32:06.497Z,2.42
2018-02-24T18:34:34.493Z,4.20
2018-02-24T18:37:01.921Z,2.80
2018-02-24T18:39:29.361Z,3.50
2018-02-24T18:41:56.793Z,2.03
2018-02-24T18:44:24.225Z,2.45
2018-02-24T18:46:52.066Z,2.17
2018-02-24T18:49:19.500Z,2.20
2018-02-24T18:51:46.953Z,2.53
2018-02-24T18:54:14.376Z,1.40
2018-02-24T18:56:41.819Z,1.58
2018-02-24T18:59:09.644Z,1.65
2018-02-24T19:01:37.075Z,1.65
2018-02-24T19:04:04.516Z,1.17
2018-02-24T19:06:31.945Z,1.27
2018-02-24T19:08:59.785Z,0.80
2018-02-24T19:11:27.212Z,1.50
2018-02-24T19:13:54.646Z,1.25
2018-02-24T19:16:22.069Z,1.23
2018-02-24T19:18:49.506Z,3.53
2018-02-24T19:21:16.999Z,1.70
2018-02-24T19:23:44.449Z,1.67
2018-02-24T19:26:11.893Z,2.65
2018-02-24T19:28:39.337Z,1.30
2018-02-24T19:31:06.793Z,1.23
2018-02-24T19:33:34.234Z,1.90
2018-02-24T19:36:01.672Z,1.70
2018-02-24T19:38:29.128Z,1.10
2018-02-24T19:40:57.470Z,1.60
2018-02-24T19:43:24.926Z,1.20
2018-02-24T19:45:52.370Z,1.50
2018-02-24T19:48:19.811Z,1.80
2018-02-24T19:50:47.261Z,1.25
2018-02-24T19:53:14.722Z,1.50
2018-02-24T19:55:42.145Z,1.30
2018-02-24T19:58:09.682Z,1.30
2018-02-24T20:00:37.045Z,1.50
2018-02-24T20:03:04.489Z,1.40
2018-02-24T20:05:31.916Z,2.37
2018-02-24T20:07:59.753Z,2.75
2018-02-24T20:10:27.570Z,3.83
2018-02-24T20:12:55.005Z,2.20
2018-02-24T20:15:22.444Z,1.80
2018-02-24T20:17:49.877Z,1.75
2018-02-24T20:20:17.305Z,1.73
2018-02-24T20:22:44.749Z,1.02
2018-02-24T20:25:12.203Z,2.58
2018-02-24T20:27:40.024Z,1.52
2018-02-24T20:30:07.490Z,1.55
2018-02-24T20:32:34.918Z,1.45
2018-02-24T20:35:02.342Z,1.30
2018-02-24T20:37:29.773Z,0.88
2018-02-24T20:39:57.205Z,1.27
2018-02-24T20:42:24.661Z,1.60
2018-02-24T20:44:52.095Z,1.90
2018-02-24T20:47:19.529Z,0.88
2018-02-24T20:49:46.957Z,1.45
2018-02-24T20:52:14.797Z,1.17
2018-02-24T20:54:42.247Z,1.33
2018-02-24T20:57:09.688Z,0.90
2018-02-24T20:59:37.144Z,1.30
2018-02-24T21:02:04.582Z,1.98
2018-02-24T21:04:32.013Z,1.00
2018-02-24T21:06:59.449Z,0.85
2018-02-24T21:09:26.894Z,0.93
2018-02-24T21:11:54.322Z,2.10
2018-02-24T21:14:21.779Z,1.85
2018-02-24T21:16:49.249Z,3.47
2018-02-24T21:19:16.734Z,2.50
2018-02-24T21:21:44.186Z,1.98
2018-02-24T21:24:11.674Z,1.58
2018-02-24T21:26:39.691Z,1.10
2018-02-24T21:29:07.755Z,1.20
2018-02-24T21:31:35.184Z,1.77
2018-02-24T21:34:02.669Z,2.67
2018-02-24T21:36:30.167Z,3.10
2018-02-24T21:38:57.853Z,2.03
2018-02-24T21:41:25.987Z,3.10
2018-02-24T21:43:53.445Z,1.37
2018-02-24T21:46:20.907Z,1.48
2018-02-24T21:48:48.366Z,2.60
2018-02-24T21:51:15.808Z,2.15
2018-02-24T21:53:43.317Z,4.00
2018-02-24T21:56:10.787Z,1.20
2018-02-24T21:58:38.268Z,1.67
2018-02-24T22:04:07.705Z,1.10
2018-02-24T22:06:35.185Z,2.53
2018-02-24T22:09:03.112Z,1.65
2018-02-24T22:11:31.317Z,1.62
2018-02-24T22:13:59.573Z,1.70
2018-02-24T22:16:28.369Z,2.55
2018-02-24T22:18:55.890Z,2.30
2018-02-24T22:21:23.829Z,1.35
2018-02-24T22:23:52.556Z,1.55
2018-02-24T22:26:23.028Z,1.58
2018-02-24T22:28:58.892Z,1.98
2018-02-24T22:31:28.600Z,1.50
2018-02-24T22:33:57.097Z,1.95
2018-02-24T22:36:24.949Z,1.33
2018-02-24T22:38:55.740Z,3.55
2018-02-24T22:41:30.234Z,3.12
2018-02-24T22:43:58.070Z,3.90
2018-02-24T22:46:31.304Z,3.50
2018-02-24T22:49:01.012Z,1.75
2018-02-24T22:51:28.488Z,1.50
2018-02-24T22:53:56.568Z,1.87
2018-02-24T22:56:25.140Z,1.70
2018-02-24T22:58:52.628Z,1.73
2018-02-24T23:01:24.241Z,1.87
2018-02-24T23:03:54.530Z,2.25
2018-02-24T23:06:22.006Z,2.37
2018-02-24T23:08:50.842Z,1.08
2018-02-24T23:28:10.408Z,1.58
2018-02-24T23:30:41.052Z,1.95
2018-02-24T23:33:19.485Z,1.95
2018-02-24T23:35:46.916Z,1.27
2018-02-24T23:38:16.298Z,1.77
2018-02-24T23:40:43.749Z,2.05
2018-02-24T23:43:11.253Z,1.95
2018-02-24T23:45:38.709Z,1.65
2018-02-24T23:48:07.079Z,2.10
2018-02-24T23:50:35.187Z,1.85
2018-02-24T23:53:03.377Z,2.40
2018-02-24T23:55:31.066Z,2.47
2018-02-24T23:57:59.457Z,1.48
